Main page
METAR-TAF:

METAR-TAF

Airports :

Rouen Airport

Rouen, France

latitude: 49-23N, longitude: 001-11E, elevation: 157 m

Current weather observation

The report was made 38 minutes ago, at 23:00 UTC
Wind 9 kt from the West/Southwest
Temperature 12°C
Humidity 82%
Pressure 1018 hPa
Visibility 10 km or more
Few clouds at a height of 2700 ft

METAR: LFOP 052300Z AUTO 25009KT 9999 FEW027 12/09 Q1018

Time: 01:38 (23:38 UTC)

Forecast

The report was made 6 hours and 38 minutes ago, at 17:00 UTC
Forecast valid from 05 at 18 UTC to 06 at 18 UTC
Wind 13 kt from the West
Visibility 10 km or more
Scattered clouds at a height of 2500 ft

TAF: LFOP 051700Z 0518/0618 28013KT 9999 SCT025

Weather observations and forecasts of more than 4000 airports (METAR and TAF reports).

The available stations are represented by yellow and red dots on the map.

Hover mouse over dot to see the name of the station.

Then click to see weather observations and forecasts.

To change the map : click on the green buttons with a black cross to zoom in, on the green button with a dash to zoom out, or on the green arrows for adjacent maps.


METAR-TAF: